Belocean — 9V8782 — position and weather

sailwx.info

Track history (hours):
 
Tides and Currents Weather Stations Pressure Air Temp Water Temp Dewpoint Dewpoint Depression Visibility Wind Speed Wind Dir Waves Ship Positions

Belocean

Last reported at 2017-Jun-09 13:00 UTC. Time now 2017-Jun-27 12:23 UTC.
Position N 34°05' E 134°58'.
Warning: this ship's position is 17 days out of date.

Length 190 m; draft 7.9 m.

Type: Ship. MMSI: 563582000.

Date/timePositionNaut miles runAvg speedWind from/ knotsBaromVisibWave heightAir tempDewpointWater temp
2017-Jun-09 13:00N 34°05' E 134°58'611.9
2017-Jun-09 12:30N 34°11' E 134°56'2 3.1
2017-Jun-09 12:00N 34°12' E 134°57'4 8.0
2017-Jun-09 11:30N 34°16' E 134°58'5 9.3
2017-Jun-09 11:00N 34°20' E 134°59'612.1
2017-Jun-09 10:30N 34°26' E 135°02'612.2
2017-Jun-09 10:00N 34°31' E 135°05'3 6.6
2017-Jun-09 09:30N 34°35' E 135°05'510.1
2017-Jun-09 08:59N 34°37' E 134°59'  
2017-Jun-04 03:41N 34°34' E 134°49'511.9
2017-Jun-04 03:18N 34°36' E 134°54'311.6
2017-Jun-04 03:00N 34°37' E 134°58'5 9.4
2017-Jun-04 02:30N 34°36' E 135°03'611.4
2017-Jun-04 02:00N 34°35' E 135°10'4 7.7
2017-Jun-04 01:30N 34°34' E 135°14'0 0.1
2017-Jun-04 00:56N 34°34' E 135°14'0 0.0
2017-Jun-04 00:26N 34°34' E 135°14'0 0.1
2017-Jun-03 23:56N 34°34' E 135°14'0 0.1
2017-Jun-03 23:29N 34°34' E 135°14'0 0.1
2017-Jun-03 22:56N 34°34' E 135°14'0 0.0
2017-Jun-03 22:29N 34°34' E 135°14'0 0.0
2017-Jun-03 21:53N 34°34' E 135°14'0 0.1
2017-Jun-03 21:26N 34°34' E 135°14'0 0.0
2017-Jun-03 20:56N 34°34' E 135°14'0 0.0
2017-Jun-03 20:29N 34°34' E 135°14'0 0.0
2017-Jun-03 19:59N 34°34' E 135°14'0 0.0
2017-Jun-03 19:29N 34°34' E 135°14'0 0.0
2017-Jun-03 18:56N 34°34' E 135°14'0 0.0
2017-Jun-03 18:29N 34°34' E 135°14'0 0.0
2017-Jun-03 17:59N 34°34' E 135°14'0 0.0
2017-Jun-03 17:26N 34°34' E 135°14'0 0.1
2017-Jun-03 16:59N 34°34' E 135°14'0 0.1
2017-Jun-03 16:29N 34°34' E 135°14'0 0.1
2017-Jun-03 15:50N 34°34' E 135°14'0 0.0
2017-Jun-03 15:29N 34°34' E 135°14'0 0.1
2017-Jun-03 14:59N 34°34' E 135°14'0 0.0
2017-Jun-03 13:56N 34°34' E 135°14'0 0.0
2017-Jun-03 13:29N 34°34' E 135°14'0 0.0
2017-Jun-03 12:59N 34°34' E 135°14'0 0.0
2017-Jun-03 12:26N 34°34' E 135°14'0 0.0
2017-Jun-03 11:59N 34°34' E 135°14'0 0.0
2017-Jun-03 11:26N 34°34' E 135°14'0 0.0
2017-Jun-03 11:01N 34°34' E 135°14'0 0.3
2017-Jun-03 10:30N 34°34' E 135°14'0 0.2
2017-Jun-03 10:00N 34°34' E 135°14'0 0.1
2017-Jun-03 09:28N 34°34' E 135°14'0 0.0
2017-Jun-03 09:00N 34°34' E 135°14'0 0.0
2017-Jun-03 08:30N 34°34' E 135°14'0 0.1
2017-Jun-03 08:00N 34°34' E 135°14'0 0.0
2017-Jun-03 07:30N 34°34' E 135°14'0 0.1
2017-Jun-03 07:00N 34°34' E 135°14'0 0.1
2017-Jun-03 06:31N 34°34' E 135°14'0 0.0
2017-Jun-03 06:01N 34°34' E 135°14'0 0.0
2017-Jun-03 05:30N 34°34' E 135°14'0 0.0
2017-Jun-03 05:01N 34°34' E 135°14'0 0.1
2017-Jun-03 04:31N 34°34' E 135°14'2 3.9
2017-Jun-03 04:00N 34°36' E 135°15'5 9.2
2017-Jun-03 03:31N 34°41' E 135°15'2 1.9
2017-Jun-03 02:37N 34°42' E 135°16'0 0.0
2017-Jun-03 02:25N 34°42' E 135°16'0 0.0
2017-Jun-03 01:55N 34°42' E 135°16'0 0.0
2017-Jun-03 01:25N 34°42' E 135°16'0 0.0
2017-Jun-03 00:49N 34°42' E 135°16'0 0.0
2017-Jun-03 00:25N 34°42' E 135°16'0 0.0
2017-Jun-02 23:55N 34°42' E 135°16'0 0.0
2017-Jun-02 23:25N 34°42' E 135°16'0 0.0
2017-Jun-02 22:55N 34°42' E 135°16'0 0.0
2017-Jun-02 22:19N 34°42' E 135°16'0 0.0
2017-Jun-02 21:49N 34°42' E 135°16'0 0.0
2017-Jun-02 21:25N 34°42' E 135°16'0 0.0
2017-Jun-02 20:55N 34°42' E 135°16'0 0.0
2017-Jun-02 20:13N 34°42' E 135°16'0 0.0
2017-Jun-02 19:55N 34°42' E 135°16'0 0.0
2017-Jun-02 19:25N 34°42' E 135°16'0 0.0
2017-Jun-02 18:49N 34°42' E 135°16'0 0.0
2017-Jun-02 18:25N 34°42' E 135°16'0 0.0
2017-Jun-02 17:55N 34°42' E 135°16'0 0.0
2017-Jun-02 17:25N 34°42' E 135°16'0 0.0
2017-Jun-02 16:55N 34°42' E 135°16'0 0.0
2017-Jun-02 16:19N 34°42' E 135°16'0 0.0
2017-Jun-02 15:55N 34°42' E 135°16'0 0.0
2017-Jun-02 15:25N 34°42' E 135°16'0 0.0
2017-Jun-02 14:55N 34°42' E 135°16'0 0.0
2017-Jun-02 13:43N 34°42' E 135°16'0 0.0
2017-Jun-02 13:25N 34°42' E 135°16'0 0.0
2017-Jun-02 12:55N 34°42' E 135°16'0 0.0
2017-Jun-02 12:19N 34°42' E 135°16'0 0.0
2017-Jun-02 11:49N 34°42' E 135°16'0 0.0
2017-Jun-02 11:25N 34°42' E 135°16'0 0.0
2017-Jun-02 10:49N 34°42' E 135°16'0 0.0
2017-Jun-02 10:25N 34°42' E 135°16'0 0.0
2017-Jun-02 09:55N 34°42' E 135°16'0 0.0
2017-Jun-02 09:19N 34°42' E 135°16'0 0.0
2017-Jun-02 08:55N 34°42' E 135°16'0 0.0
2017-Jun-02 08:25N 34°42' E 135°16'0 0.0
2017-Jun-02 07:49N 34°42' E 135°16'0 0.0
2017-Jun-02 07:19N 34°42' E 135°16'0 0.0
2017-Jun-02 06:49N 34°42' E 135°16'0 0.0
2017-Jun-02 06:25N 34°42' E 135°16'0 0.0
2017-Jun-02 05:49N 34°42' E 135°16'0 0.0
2017-Jun-02 05:25N 34°42' E 135°16'0 0.0
2017-Jun-02 04:49N 34°42' E 135°16'0 0.0
2017-Jun-02 04:25N 34°42' E 135°16'0 0.0
2017-Jun-02 03:55N 34°42' E 135°16'0 0.0
2017-Jun-02 03:25N 34°42' E 135°16'0 0.0
2017-Jun-02 02:43N 34°42' E 135°16'0 0.0
2017-Jun-02 02:25N 34°42' E 135°16'0 0.0
2017-Jun-02 01:49N 34°42' E 135°16'0 0.0
2017-Jun-02 01:07N 34°42' E 135°16'0 0.0
2017-Jun-02 00:43N 34°42' E 135°16'0 0.0
2017-Jun-02 00:25N 34°42' E 135°16'0 0.0
2017-Jun-01 23:49N 34°42' E 135°16'0 0.0
2017-Jun-01 23:25N 34°42' E 135°16'0 0.0
2017-Jun-01 22:49N 34°42' E 135°16'0 0.0
2017-Jun-01 22:25N 34°42' E 135°16'0 0.0
2017-Jun-01 21:55N 34°42' E 135°16'0 0.0
2017-Jun-01 21:19N 34°42' E 135°16'0 0.0
2017-Jun-01 20:55N 34°42' E 135°16'0 0.0
2017-Jun-01 20:19N 34°42' E 135°16'0 0.0
2017-Jun-01 19:55N 34°42' E 135°16'0 0.0
2017-Jun-01 19:25N 34°42' E 135°16'0 0.0
2017-Jun-01 18:55N 34°42' E 135°16'0 0.0
2017-Jun-01 18:25N 34°42' E 135°16'0 0.0
2017-Jun-01 17:55N 34°42' E 135°16'0 0.0
2017-Jun-01 17:19N 34°42' E 135°16'0 0.0
2017-Jun-01 16:55N 34°42' E 135°16'0 0.0
2017-Jun-01 16:25N 34°42' E 135°16'0 0.0
2017-Jun-01 15:55N 34°42' E 135°16'0 0.0
2017-Jun-01 15:25N 34°42' E 135°16'0 0.0
2017-Jun-01 14:37N 34°42' E 135°16'0 0.1
2017-Jun-01 14:25N 34°42' E 135°16'0 0.0
2017-Jun-01 13:13N 34°42' E 135°16'0 0.0
2017-Jun-01 12:43N 34°42' E 135°16'0 0.0
2017-Jun-01 12:25N 34°42' E 135°16'0 0.0
2017-Jun-01 11:55N 34°42' E 135°16'0 0.0
2017-Jun-01 11:25N 34°42' E 135°16'0 0.0
2017-Jun-01 10:55N 34°42' E 135°16'0 0.0
2017-Jun-01 10:25N 34°42' E 135°16'0 0.0
2017-Jun-01 09:55N 34°42' E 135°16'0 0.0
2017-Jun-01 09:25N 34°42' E 135°16'0 0.0
2017-Jun-01 08:55N 34°42' E 135°16'0 0.0
2017-Jun-01 08:19N 34°42' E 135°16'0 0.0
2017-Jun-01 07:55N 34°42' E 135°16'0 0.0
2017-Jun-01 07:25N 34°42' E 135°16'0 0.0
2017-Jun-01 06:37N 34°42' E 135°16'0 0.0
2017-Jun-01 06:25N 34°42' E 135°16'0 0.0
2017-Jun-01 05:49N 34°42' E 135°16'0 0.0
2017-Jun-01 05:25N 34°42' E 135°16'0 0.0
2017-Jun-01 04:55N 34°42' E 135°16'0 0.0
2017-Jun-01 04:25N 34°42' E 135°16'0 0.0
2017-Jun-01 03:55N 34°42' E 135°16'0 0.0
2017-Jun-01 03:25N 34°42' E 135°16'0 0.0
2017-Jun-01 02:55N 34°42' E 135°16'0 0.0
2017-Jun-01 02:25N 34°42' E 135°16'0 0.0
2017-Jun-01 01:49N 34°42' E 135°16'0 0.0
2017-Jun-01 01:25N 34°42' E 135°16'0 0.0
2017-Jun-01 00:55N 34°42' E 135°16'0 0.0
2017-Jun-01 00:25N 34°42' E 135°16'0 0.0
2017-May-31 23:55N 34°42' E 135°16'0 0.0
2017-May-31 23:19N 34°42' E 135°16'0 0.0
2017-May-31 23:00N 34°42' E 135°16'0 0.5
2017-May-31 22:30N 34°42' E 135°16'2 3.4
2017-May-31 22:00N 34°40' E 135°15'4 8.4
2017-May-31 21:29N 34°36' E 135°16'510.0
2017-May-31 21:00N 34°32' E 135°13'612.2
2017-May-31 20:30N 34°27' E 135°08'612.2
2017-May-31 19:59N 34°23' E 135°03'712.2
2017-May-31 19:27N 34°17' E 134°59'612.2
2017-May-31 19:00N 34°11' E 134°59'5 9.2
2017-May-31 18:30N 34°07' E 134°59'4 8.1
2017-May-31 17:57N 34°02' E 134°58'3 5.5
2017-May-31 17:29N 33°60' E 134°57'  
Track history (hours):
 
Tides and Currents Weather Stations Pressure Air Temp Water Temp Dewpoint Dewpoint Depression Visibility Wind Speed Wind Dir Waves Ship Positions

Belocean

Last reported at 2017-Jun-09 13:00 UTC. Time now 2017-Jun-27 12:23 UTC.
Position N 34°05' E 134°58'.
Warning: this ship's position is 17 days out of date.

Length 190 m; draft 7.9 m.

Type: Ship. MMSI: 563582000.

Date/timePositionNaut miles runAvg speedWind from/ knotsBaromVisibWave heightAir tempDewpointWater temp
2017-Jun-09 13:00N 34°05' E 134°58'611.9
2017-Jun-09 12:30N 34°11' E 134°56'2 3.1
2017-Jun-09 12:00N 34°12' E 134°57'4 8.0
2017-Jun-09 11:30N 34°16' E 134°58'5 9.3
2017-Jun-09 11:00N 34°20' E 134°59'612.1
2017-Jun-09 10:30N 34°26' E 135°02'612.2
2017-Jun-09 10:00N 34°31' E 135°05'3 6.6
2017-Jun-09 09:30N 34°35' E 135°05'510.1
2017-Jun-09 08:59N 34°37' E 134°59'  
2017-Jun-04 03:41N 34°34' E 134°49'511.9
2017-Jun-04 03:18N 34°36' E 134°54'311.6
2017-Jun-04 03:00N 34°37' E 134°58'5 9.4
2017-Jun-04 02:30N 34°36' E 135°03'611.4
2017-Jun-04 02:00N 34°35' E 135°10'4 7.7
2017-Jun-04 01:30N 34°34' E 135°14'0 0.1
2017-Jun-04 00:56N 34°34' E 135°14'0 0.0
2017-Jun-04 00:26N 34°34' E 135°14'0 0.1
2017-Jun-03 23:56N 34°34' E 135°14'0 0.1
2017-Jun-03 23:29N 34°34' E 135°14'0 0.1
2017-Jun-03 22:56N 34°34' E 135°14'0 0.0
2017-Jun-03 22:29N 34°34' E 135°14'0 0.0
2017-Jun-03 21:53N 34°34' E 135°14'0 0.1
2017-Jun-03 21:26N 34°34' E 135°14'0 0.0
2017-Jun-03 20:56N 34°34' E 135°14'0 0.0
2017-Jun-03 20:29N 34°34' E 135°14'0 0.0
2017-Jun-03 19:59N 34°34' E 135°14'0 0.0
2017-Jun-03 19:29N 34°34' E 135°14'0 0.0
2017-Jun-03 18:56N 34°34' E 135°14'0 0.0
2017-Jun-03 18:29N 34°34' E 135°14'0 0.0
2017-Jun-03 17:59N 34°34' E 135°14'0 0.0
2017-Jun-03 17:26N 34°34' E 135°14'0 0.1
2017-Jun-03 16:59N 34°34' E 135°14'0 0.1
2017-Jun-03 16:29N 34°34' E 135°14'0 0.1
2017-Jun-03 15:50N 34°34' E 135°14'0 0.0
2017-Jun-03 15:29N 34°34' E 135°14'0 0.1
2017-Jun-03 14:59N 34°34' E 135°14'0 0.0
2017-Jun-03 13:56N 34°34' E 135°14'0 0.0
2017-Jun-03 13:29N 34°34' E 135°14'0 0.0
2017-Jun-03 12:59N 34°34' E 135°14'0 0.0
2017-Jun-03 12:26N 34°34' E 135°14'0 0.0
2017-Jun-03 11:59N 34°34' E 135°14'0 0.0
2017-Jun-03 11:26N 34°34' E 135°14'0 0.0
2017-Jun-03 11:01N 34°34' E 135°14'0 0.3
2017-Jun-03 10:30N 34°34' E 135°14'0 0.2
2017-Jun-03 10:00N 34°34' E 135°14'0 0.1
2017-Jun-03 09:28N 34°34' E 135°14'0 0.0
2017-Jun-03 09:00N 34°34' E 135°14'0 0.0
2017-Jun-03 08:30N 34°34' E 135°14'0 0.1
2017-Jun-03 08:00N 34°34' E 135°14'0 0.0
2017-Jun-03 07:30N 34°34' E 135°14'0 0.1
2017-Jun-03 07:00N 34°34' E 135°14'0 0.1
2017-Jun-03 06:31N 34°34' E 135°14'0 0.0
2017-Jun-03 06:01N 34°34' E 135°14'0 0.0
2017-Jun-03 05:30N 34°34' E 135°14'0 0.0
2017-Jun-03 05:01N 34°34' E 135°14'0 0.1
2017-Jun-03 04:31N 34°34' E 135°14'2 3.9
2017-Jun-03 04:00N 34°36' E 135°15'5 9.2
2017-Jun-03 03:31N 34°41' E 135°15'2 1.9
2017-Jun-03 02:37N 34°42' E 135°16'0 0.0
2017-Jun-03 02:25N 34°42' E 135°16'0 0.0
2017-Jun-03 01:55N 34°42' E 135°16'0 0.0
2017-Jun-03 01:25N 34°42' E 135°16'0 0.0
2017-Jun-03 00:49N 34°42' E 135°16'0 0.0
2017-Jun-03 00:25N 34°42' E 135°16'0 0.0
2017-Jun-02 23:55N 34°42' E 135°16'0 0.0
2017-Jun-02 23:25N 34°42' E 135°16'0 0.0
2017-Jun-02 22:55N 34°42' E 135°16'0 0.0
2017-Jun-02 22:19N 34°42' E 135°16'0 0.0
2017-Jun-02 21:49N 34°42' E 135°16'0 0.0
2017-Jun-02 21:25N 34°42' E 135°16'0 0.0
2017-Jun-02 20:55N 34°42' E 135°16'0 0.0
2017-Jun-02 20:13N 34°42' E 135°16'0 0.0
2017-Jun-02 19:55N 34°42' E 135°16'0 0.0
2017-Jun-02 19:25N 34°42' E 135°16'0 0.0
2017-Jun-02 18:49N 34°42' E 135°16'0 0.0
2017-Jun-02 18:25N 34°42' E 135°16'0 0.0
2017-Jun-02 17:55N 34°42' E 135°16'0 0.0
2017-Jun-02 17:25N 34°42' E 135°16'0 0.0
2017-Jun-02 16:55N 34°42' E 135°16'0 0.0
2017-Jun-02 16:19N 34°42' E 135°16'0 0.0
2017-Jun-02 15:55N 34°42' E 135°16'0 0.0
2017-Jun-02 15:25N 34°42' E 135°16'0 0.0
2017-Jun-02 14:55N 34°42' E 135°16'0 0.0
2017-Jun-02 13:43N 34°42' E 135°16'0 0.0
2017-Jun-02 13:25N 34°42' E 135°16'0 0.0
2017-Jun-02 12:55N 34°42' E 135°16'0 0.0
2017-Jun-02 12:19N 34°42' E 135°16'0 0.0
2017-Jun-02 11:49N 34°42' E 135°16'0 0.0
2017-Jun-02 11:25N 34°42' E 135°16'0 0.0
2017-Jun-02 10:49N 34°42' E 135°16'0 0.0
2017-Jun-02 10:25N 34°42' E 135°16'0 0.0
2017-Jun-02 09:55N 34°42' E 135°16'0 0.0
2017-Jun-02 09:19N 34°42' E 135°16'0 0.0
2017-Jun-02 08:55N 34°42' E 135°16'0 0.0
2017-Jun-02 08:25N 34°42' E 135°16'0 0.0
2017-Jun-02 07:49N 34°42' E 135°16'0 0.0
2017-Jun-02 07:19N 34°42' E 135°16'0 0.0
2017-Jun-02 06:49N 34°42' E 135°16'0 0.0
2017-Jun-02 06:25N 34°42' E 135°16'0 0.0
2017-Jun-02 05:49N 34°42' E 135°16'0 0.0
2017-Jun-02 05:25N 34°42' E 135°16'0 0.0
2017-Jun-02 04:49N 34°42' E 135°16'0 0.0
2017-Jun-02 04:25N 34°42' E 135°16'0 0.0
2017-Jun-02 03:55N 34°42' E 135°16'0 0.0
2017-Jun-02 03:25N 34°42' E 135°16'0 0.0
2017-Jun-02 02:43N 34°42' E 135°16'0 0.0
2017-Jun-02 02:25N 34°42' E 135°16'0 0.0
2017-Jun-02 01:49N 34°42' E 135°16'0 0.0
2017-Jun-02 01:07N 34°42' E 135°16'0 0.0
2017-Jun-02 00:43N 34°42' E 135°16'0 0.0
2017-Jun-02 00:25N 34°42' E 135°16'0 0.0
2017-Jun-01 23:49N 34°42' E 135°16'0 0.0
2017-Jun-01 23:25N 34°42' E 135°16'0 0.0
2017-Jun-01 22:49N 34°42' E 135°16'0 0.0
2017-Jun-01 22:25N 34°42' E 135°16'0 0.0
2017-Jun-01 21:55N 34°42' E 135°16'0 0.0
2017-Jun-01 21:19N 34°42' E 135°16'0 0.0
2017-Jun-01 20:55N 34°42' E 135°16'0 0.0
2017-Jun-01 20:19N 34°42' E 135°16'0 0.0
2017-Jun-01 19:55N 34°42' E 135°16'0 0.0
2017-Jun-01 19:25N 34°42' E 135°16'0 0.0
2017-Jun-01 18:55N 34°42' E 135°16'0 0.0
2017-Jun-01 18:25N 34°42' E 135°16'0 0.0
2017-Jun-01 17:55N 34°42' E 135°16'0 0.0
2017-Jun-01 17:19N 34°42' E 135°16'0 0.0
2017-Jun-01 16:55N 34°42' E 135°16'0 0.0
2017-Jun-01 16:25N 34°42' E 135°16'0 0.0
2017-Jun-01 15:55N 34°42' E 135°16'0 0.0
2017-Jun-01 15:25N 34°42' E 135°16'0 0.0
2017-Jun-01 14:37N 34°42' E 135°16'0 0.1
2017-Jun-01 14:25N 34°42' E 135°16'0 0.0
2017-Jun-01 13:13N 34°42' E 135°16'0 0.0
2017-Jun-01 12:43N 34°42' E 135°16'0 0.0
2017-Jun-01 12:25N 34°42' E 135°16'0 0.0
2017-Jun-01 11:55N 34°42' E 135°16'0 0.0
2017-Jun-01 11:25N 34°42' E 135°16'0 0.0
2017-Jun-01 10:55N 34°42' E 135°16'0 0.0
2017-Jun-01 10:25N 34°42' E 135°16'0 0.0
2017-Jun-01 09:55N 34°42' E 135°16'0 0.0
2017-Jun-01 09:25N 34°42' E 135°16'0 0.0
2017-Jun-01 08:55N 34°42' E 135°16'0 0.0
2017-Jun-01 08:19N 34°42' E 135°16'0 0.0
2017-Jun-01 07:55N 34°42' E 135°16'0 0.0
2017-Jun-01 07:25N 34°42' E 135°16'0 0.0
2017-Jun-01 06:37N 34°42' E 135°16'0 0.0
2017-Jun-01 06:25N 34°42' E 135°16'0 0.0
2017-Jun-01 05:49N 34°42' E 135°16'0 0.0
2017-Jun-01 05:25N 34°42' E 135°16'0 0.0
2017-Jun-01 04:55N 34°42' E 135°16'0 0.0
2017-Jun-01 04:25N 34°42' E 135°16'0 0.0
2017-Jun-01 03:55N 34°42' E 135°16'0 0.0
2017-Jun-01 03:25N 34°42' E 135°16'0 0.0
2017-Jun-01 02:55N 34°42' E 135°16'0 0.0
2017-Jun-01 02:25N 34°42' E 135°16'0 0.0
2017-Jun-01 01:49N 34°42' E 135°16'0 0.0
2017-Jun-01 01:25N 34°42' E 135°16'0 0.0
2017-Jun-01 00:55N 34°42' E 135°16'0 0.0
2017-Jun-01 00:25N 34°42' E 135°16'0 0.0
2017-May-31 23:55N 34°42' E 135°16'0 0.0
2017-May-31 23:19N 34°42' E 135°16'0 0.0
2017-May-31 23:00N 34°42' E 135°16'0 0.5
2017-May-31 22:30N 34°42' E 135°16'2 3.4
2017-May-31 22:00N 34°40' E 135°15'4 8.4
2017-May-31 21:29N 34°36' E 135°16'510.0
2017-May-31 21:00N 34°32' E 135°13'612.2
2017-May-31 20:30N 34°27' E 135°08'612.2
2017-May-31 19:59N 34°23' E 135°03'712.2
2017-May-31 19:27N 34°17' E 134°59'612.2
2017-May-31 19:00N 34°11' E 134°59'5 9.2
2017-May-31 18:30N 34°07' E 134°59'4 8.1
2017-May-31 17:57N 34°02' E 134°58'3 5.5
2017-May-31 17:29N 33°60' E 134°57'  

Dump ship's entire track history